sensor_id;sensor_type;location;lat;lon;timestamp;P1;durP1;ratioP1;P2;durP2;ratioP2
16957;SDS011;8595;52.542;11.974;2022-10-03T00:00:14;18.33;;;4.00;;
16957;SDS011;8595;52.542;11.974;2022-10-03T00:03:06;19.65;;;4.00;;
16957;SDS011;8595;52.542;11.974;2022-10-03T00:05:59;22.88;;;4.38;;
16957;SDS011;8595;52.542;11.974;2022-10-03T00:08:39;28.35;;;4.97;;
16957;SDS011;8595;52.542;11.974;2022-10-03T00:11:20;22.42;;;4.10;;
16957;SDS011;8595;52.542;11.974;2022-10-03T00:13:57;22.80;;;4.18;;
16957;SDS011;8595;52.542;11.974;2022-10-03T00:16:32;19.80;;;4.15;;
16957;SDS011;8595;52.542;11.974;2022-10-03T00:19:07;21.58;;;4.78;;
16957;SDS011;8595;52.542;11.974;2022-10-03T00:21:46;18.88;;;3.83;;
16957;SDS011;8595;52.542;11.974;2022-10-03T00:24:23;22.17;;;4.38;;
16957;SDS011;8595;52.542;11.974;2022-10-03T00:27:00;16.95;;;4.28;;
16957;SDS011;8595;52.542;11.974;2022-10-03T00:29:46;13.85;;;3.92;;
16957;SDS011;8595;52.542;11.974;2022-10-03T00:32:31;20.55;;;3.47;;
16957;SDS011;8595;52.542;11.974;2022-10-03T00:35:12;16.67;;;3.83;;
16957;SDS011;8595;52.542;11.974;2022-10-03T00:37:56;15.30;;;3.90;;
16957;SDS011;8595;52.542;11.974;2022-10-03T00:40:35;22.33;;;4.28;;
16957;SDS011;8595;52.542;11.974;2022-10-03T00:43:25;20.92;;;3.92;;
16957;SDS011;8595;52.542;11.974;2022-10-03T00:46:34;22.65;;;4.05;;
16957;SDS011;8595;52.542;11.974;2022-10-03T00:55:33;13.82;;;2.92;;
16957;SDS011;8595;52.542;11.974;2022-10-03T00:58:21;13.07;;;3.70;;
16957;SDS011;8595;52.542;11.974;2022-10-03T01:01:02;21.17;;;4.93;;
16957;SDS011;8595;52.542;11.974;2022-10-03T01:03:49;18.83;;;3.58;;
16957;SDS011;8595;52.542;11.974;2022-10-03T01:06:33;20.10;;;3.88;;
16957;SDS011;8595;52.542;11.974;2022-10-03T01:09:10;16.27;;;3.38;;
16957;SDS011;8595;52.542;11.974;2022-10-03T01:11:55;19.77;;;4.13;;
16957;SDS011;8595;52.542;11.974;2022-10-03T01:14:35;24.38;;;3.80;;
16957;SDS011;8595;52.542;11.974;2022-10-03T01:17:22;15.52;;;3.30;;
16957;SDS011;8595;52.542;11.974;2022-10-03T01:20:02;14.80;;;3.47;;
16957;SDS011;8595;52.542;11.974;2022-10-03T01:22:52;22.83;;;4.18;;
16957;SDS011;8595;52.542;11.974;2022-10-03T01:25:38;12.63;;;3.17;;
16957;SDS011;8595;52.542;11.974;2022-10-03T01:31:23;19.67;;;4.45;;
16957;SDS011;8595;52.542;11.974;2022-10-03T01:33:56;23.00;;;3.90;;
16957;SDS011;8595;52.542;11.974;2022-10-03T01:36:30;15.43;;;3.38;;
16957;SDS011;8595;52.542;11.974;2022-10-03T01:39:05;15.80;;;4.20;;
16957;SDS011;8595;52.542;11.974;2022-10-03T01:41:41;13.27;;;3.97;;
16957;SDS011;8595;52.542;11.974;2022-10-03T01:44:17;17.27;;;3.70;;
16957;SDS011;8595;52.542;11.974;2022-10-03T01:46:49;15.50;;;4.05;;
16957;SDS011;8595;52.542;11.974;2022-10-03T01:49:20;19.38;;;3.85;;
16957;SDS011;8595;52.542;11.974;2022-10-03T01:51:54;11.52;;;3.25;;
16957;SDS011;8595;52.542;11.974;2022-10-03T01:54:28;19.63;;;3.75;;
16957;SDS011;8595;52.542;11.974;2022-10-03T01:57:01;10.23;;;3.25;;
16957;SDS011;8595;52.542;11.974;2022-10-03T01:59:44;22.00;;;4.57;;
16957;SDS011;8595;52.542;11.974;2022-10-03T02:02:16;17.35;;;3.92;;
16957;SDS011;8595;52.542;11.974;2022-10-03T02:04:57;22.87;;;4.67;;
16957;SDS011;8595;52.542;11.974;2022-10-03T02:07:28;18.60;;;3.92;;
16957;SDS011;8595;52.542;11.974;2022-10-03T02:10:06;21.35;;;4.60;;
16957;SDS011;8595;52.542;11.974;2022-10-03T02:12:45;22.08;;;4.80;;
16957;SDS011;8595;52.542;11.974;2022-10-03T02:15:18;19.77;;;4.03;;
16957;SDS011;8595;52.542;11.974;2022-10-03T02:17:51;25.75;;;4.10;;
16957;SDS011;8595;52.542;11.974;2022-10-03T02:20:23;17.95;;;4.18;;
16957;SDS011;8595;52.542;11.974;2022-10-03T02:22:56;15.68;;;4.00;;
16957;SDS011;8595;52.542;11.974;2022-10-03T02:25:25;15.20;;;4.43;;
16957;SDS011;8595;52.542;11.974;2022-10-03T02:31:20;18.95;;;4.10;;
16957;SDS011;8595;52.542;11.974;2022-10-03T02:34:22;20.15;;;3.92;;
16957;SDS011;8595;52.542;11.974;2022-10-03T02:39:55;23.90;;;4.05;;
16957;SDS011;8595;52.542;11.974;2022-10-03T02:45:48;20.42;;;4.00;;
16957;SDS011;8595;52.542;11.974;2022-10-03T02:48:58;11.63;;;3.55;;
16957;SDS011;8595;52.542;11.974;2022-10-03T02:54:52;22.80;;;4.22;;
16957;SDS011;8595;52.542;11.974;2022-10-03T02:57:38;11.75;;;3.75;;
16957;SDS011;8595;52.542;11.974;2022-10-03T03:00:40;14.48;;;3.33;;
16957;SDS011;8595;52.542;11.974;2022-10-03T03:06:48;21.88;;;3.83;;
16957;SDS011;8595;52.542;11.974;2022-10-03T03:09:51;17.77;;;3.75;;
16957;SDS011;8595;52.542;11.974;2022-10-03T03:12:48;17.63;;;3.78;;
16957;SDS011;8595;52.542;11.974;2022-10-03T03:15:45;17.80;;;4.18;;
16957;SDS011;8595;52.542;11.974;2022-10-03T03:18:38;15.48;;;3.90;;
16957;SDS011;8595;52.542;11.974;2022-10-03T03:21:14;18.15;;;4.90;;
16957;SDS011;8595;52.542;11.974;2022-10-03T03:23:52;18.52;;;4.65;;
16957;SDS011;8595;52.542;11.974;2022-10-03T03:26:37;19.42;;;4.30;;
16957;SDS011;8595;52.542;11.974;2022-10-03T03:29:19;15.40;;;3.83;;
16957;SDS011;8595;52.542;11.974;2022-10-03T03:31:56;14.52;;;3.63;;
16957;SDS011;8595;52.542;11.974;2022-10-03T03:34:32;17.02;;;4.63;;
16957;SDS011;8595;52.542;11.974;2022-10-03T03:37:08;10.35;;;3.45;;
16957;SDS011;8595;52.542;11.974;2022-10-03T03:39:43;13.65;;;4.35;;
16957;SDS011;8595;52.542;11.974;2022-10-03T03:42:30;17.08;;;4.15;;
16957;SDS011;8595;52.542;11.974;2022-10-03T03:45:13;29.10;;;4.57;;
16957;SDS011;8595;52.542;11.974;2022-10-03T03:47:53;26.67;;;4.65;;
16957;SDS011;8595;52.542;11.974;2022-10-03T03:50:39;19.30;;;3.97;;
16957;SDS011;8595;52.542;11.974;2022-10-03T03:53:21;15.85;;;3.90;;
16957;SDS011;8595;52.542;11.974;2022-10-03T03:56:21;19.58;;;4.50;;
16957;SDS011;8595;52.542;11.974;2022-10-03T03:58:59;18.27;;;4.45;;
16957;SDS011;8595;52.542;11.974;2022-10-03T04:01:41;20.70;;;4.55;;
16957;SDS011;8595;52.542;11.974;2022-10-03T04:04:27;17.83;;;3.83;;
16957;SDS011;8595;52.542;11.974;2022-10-03T04:07:06;24.20;;;4.73;;
16957;SDS011;8595;52.542;11.974;2022-10-03T04:09:50;17.60;;;4.03;;
16957;SDS011;8595;52.542;11.974;2022-10-03T04:12:31;16.85;;;4.28;;
16957;SDS011;8595;52.542;11.974;2022-10-03T04:15:25;16.65;;;4.53;;
16957;SDS011;8595;52.542;11.974;2022-10-03T04:18:11;12.93;;;3.53;;
16957;SDS011;8595;52.542;11.974;2022-10-03T04:21:16;20.23;;;4.15;;
16957;SDS011;8595;52.542;11.974;2022-10-03T04:24:01;14.63;;;3.57;;
16957;SDS011;8595;52.542;11.974;2022-10-03T04:26:57;29.45;;;4.82;;
16957;SDS011;8595;52.542;11.974;2022-10-03T04:29:42;11.43;;;3.90;;
16957;SDS011;8595;52.542;11.974;2022-10-03T04:32:18;11.63;;;3.92;;
16957;SDS011;8595;52.542;11.974;2022-10-03T04:35:04;20.92;;;4.82;;
16957;SDS011;8595;52.542;11.974;2022-10-03T04:37:42;13.98;;;3.65;;
16957;SDS011;8595;52.542;11.974;2022-10-03T04:40:22;17.02;;;4.53;;
16957;SDS011;8595;52.542;11.974;2022-10-03T04:43:01;20.27;;;4.07;;
16957;SDS011;8595;52.542;11.974;2022-10-03T04:45:41;22.23;;;3.90;;
16957;SDS011;8595;52.542;11.974;2022-10-03T04:48:23;20.77;;;4.13;;
16957;SDS011;8595;52.542;11.974;2022-10-03T04:51:00;18.63;;;4.57;;
16957;SDS011;8595;52.542;11.974;2022-10-03T04:53:36;12.55;;;4.78;;
16957;SDS011;8595;52.542;11.974;2022-10-03T04:56:15;20.87;;;4.53;;
16957;SDS011;8595;52.542;11.974;2022-10-03T04:58:55;18.88;;;4.25;;
16957;SDS011;8595;52.542;11.974;2022-10-03T05:01:31;27.88;;;4.82;;
16957;SDS011;8595;52.542;11.974;2022-10-03T05:04:06;17.25;;;3.92;;
16957;SDS011;8595;52.542;11.974;2022-10-03T05:06:43;21.05;;;4.80;;
16957;SDS011;8595;52.542;11.974;2022-10-03T05:09:22;14.13;;;4.95;;
16957;SDS011;8595;52.542;11.974;2022-10-03T05:11:58;18.70;;;4.15;;
16957;SDS011;8595;52.542;11.974;2022-10-03T05:14:36;14.60;;;4.20;;
16957;SDS011;8595;52.542;11.974;2022-10-03T05:17:15;16.75;;;5.13;;
16957;SDS011;8595;52.542;11.974;2022-10-03T05:19:52;25.95;;;5.18;;
16957;SDS011;8595;52.542;11.974;2022-10-03T05:22:40;16.50;;;4.65;;
16957;SDS011;8595;52.542;11.974;2022-10-03T05:25:17;17.02;;;4.78;;
16957;SDS011;8595;52.542;11.974;2022-10-03T05:27:53;14.75;;;4.03;;
16957;SDS011;8595;52.542;11.974;2022-10-03T05:30:34;25.58;;;5.35;;
16957;SDS011;8595;52.542;11.974;2022-10-03T05:33:06;19.10;;;5.05;;
16957;SDS011;8595;52.542;11.974;2022-10-03T05:35:49;23.38;;;4.70;;
16957;SDS011;8595;52.542;11.974;2022-10-03T05:38:48;21.05;;;4.28;;
16957;SDS011;8595;52.542;11.974;2022-10-03T05:41:42;24.90;;;5.03;;
16957;SDS011;8595;52.542;11.974;2022-10-03T05:44:18;13.60;;;4.10;;
16957;SDS011;8595;52.542;11.974;2022-10-03T05:46:54;17.15;;;4.63;;
16957;SDS011;8595;52.542;11.974;2022-10-03T05:49:35;23.98;;;5.05;;
16957;SDS011;8595;52.542;11.974;2022-10-03T05:52:39;14.93;;;4.18;;
16957;SDS011;8595;52.542;11.974;2022-10-03T05:55:27;16.67;;;4.30;;
16957;SDS011;8595;52.542;11.974;2022-10-03T06:01:09;15.13;;;3.80;;
16957;SDS011;8595;52.542;11.974;2022-10-03T06:07:11;19.10;;;4.22;;
16957;SDS011;8595;52.542;11.974;2022-10-03T06:09:58;15.80;;;4.68;;
16957;SDS011;8595;52.542;11.974;2022-10-03T06:12:52;25.77;;;4.85;;
16957;SDS011;8595;52.542;11.974;2022-10-03T06:15:44;18.10;;;4.32;;
16957;SDS011;8595;52.542;11.974;2022-10-03T06:24:27;14.80;;;4.82;;
16957;SDS011;8595;52.542;11.974;2022-10-03T06:27:31;22.80;;;4.47;;
16957;SDS011;8595;52.542;11.974;2022-10-03T06:30:22;14.43;;;4.32;;
16957;SDS011;8595;52.542;11.974;2022-10-03T06:45:02;16.70;;;4.82;;
16957;SDS011;8595;52.542;11.974;2022-10-03T06:47:52;19.00;;;5.72;;
16957;SDS011;8595;52.542;11.974;2022-10-03T06:50:35;12.55;;;4.70;;
16957;SDS011;8595;52.542;11.974;2022-10-03T06:53:34;13.48;;;3.60;;
16957;SDS011;8595;52.542;11.974;2022-10-03T06:56:17;17.52;;;4.30;;
16957;SDS011;8595;52.542;11.974;2022-10-03T06:59:15;19.58;;;5.45;;
16957;SDS011;8595;52.542;11.974;2022-10-03T07:02:17;18.65;;;4.57;;
16957;SDS011;8595;52.542;11.974;2022-10-03T07:11:06;23.00;;;5.03;;
16957;SDS011;8595;52.542;11.974;2022-10-03T07:16:52;14.65;;;4.55;;
16957;SDS011;8595;52.542;11.974;2022-10-03T07:19:34;17.55;;;3.97;;
16957;SDS011;8595;52.542;11.974;2022-10-03T07:22:26;25.90;;;5.10;;
16957;SDS011;8595;52.542;11.974;2022-10-03T07:25:28;13.57;;;4.03;;
16957;SDS011;8595;52.542;11.974;2022-10-03T07:28:19;14.93;;;4.10;;
16957;SDS011;8595;52.542;11.974;2022-10-03T07:31:13;19.45;;;3.85;;
16957;SDS011;8595;52.542;11.974;2022-10-03T07:34:01;19.55;;;5.25;;
16957;SDS011;8595;52.542;11.974;2022-10-03T07:36:49;15.93;;;3.72;;
16957;SDS011;8595;52.542;11.974;2022-10-03T07:40:03;14.80;;;4.10;;
16957;SDS011;8595;52.542;11.974;2022-10-03T07:43:05;18.98;;;5.32;;
16957;SDS011;8595;52.542;11.974;2022-10-03T07:49:13;25.77;;;4.95;;
16957;SDS011;8595;52.542;11.974;2022-10-03T07:51:56;16.63;;;4.03;;
16957;SDS011;8595;52.542;11.974;2022-10-03T07:55:03;12.68;;;3.90;;
16957;SDS011;8595;52.542;11.974;2022-10-03T07:58:03;18.27;;;4.85;;
16957;SDS011;8595;52.542;11.974;2022-10-03T08:00:46;16.00;;;5.70;;
16957;SDS011;8595;52.542;11.974;2022-10-03T08:06:35;21.70;;;5.82;;
16957;SDS011;8595;52.542;11.974;2022-10-03T08:12:26;15.07;;;3.40;;
16957;SDS011;8595;52.542;11.974;2022-10-03T08:15:09;15.00;;;4.60;;
16957;SDS011;8595;52.542;11.974;2022-10-03T08:21:02;16.70;;;4.18;;
16957;SDS011;8595;52.542;11.974;2022-10-03T08:26:33;13.70;;;4.07;;
16957;SDS011;8595;52.542;11.974;2022-10-03T08:32:10;16.90;;;4.18;;
16957;SDS011;8595;52.542;11.974;2022-10-03T08:37:55;13.52;;;4.13;;
16957;SDS011;8595;52.542;11.974;2022-10-03T08:49:40;16.15;;;4.30;;
16957;SDS011;8595;52.542;11.974;2022-10-03T08:52:24;13.70;;;3.80;;
16957;SDS011;8595;52.542;11.974;2022-10-03T08:55:19;16.45;;;3.60;;
16957;SDS011;8595;52.542;11.974;2022-10-03T09:01:15;19.33;;;4.32;;
16957;SDS011;8595;52.542;11.974;2022-10-03T09:07:06;13.90;;;3.53;;
16957;SDS011;8595;52.542;11.974;2022-10-03T09:16:29;12.68;;;4.03;;
16957;SDS011;8595;52.542;11.974;2022-10-03T09:19:25;17.05;;;4.30;;
16957;SDS011;8595;52.542;11.974;2022-10-03T09:22:19;16.73;;;3.85;;
16957;SDS011;8595;52.542;11.974;2022-10-03T09:25:10;14.52;;;3.85;;
16957;SDS011;8595;52.542;11.974;2022-10-03T09:28:20;16.67;;;3.80;;
16957;SDS011;8595;52.542;11.974;2022-10-03T09:31:10;10.50;;;3.17;;
16957;SDS011;8595;52.542;11.974;2022-10-03T09:34:01;14.13;;;4.60;;
16957;SDS011;8595;52.542;11.974;2022-10-03T09:46:18;13.52;;;4.53;;
16957;SDS011;8595;52.542;11.974;2022-10-03T09:49:41;13.52;;;4.15;;
16957;SDS011;8595;52.542;11.974;2022-10-03T09:52:41;20.98;;;4.53;;
16957;SDS011;8595;52.542;11.974;2022-10-03T09:55:35;10.07;;;3.95;;
16957;SDS011;8595;52.542;11.974;2022-10-03T10:01:21;18.38;;;4.22;;
16957;SDS011;8595;52.542;11.974;2022-10-03T10:04:06;10.65;;;3.53;;
16957;SDS011;8595;52.542;11.974;2022-10-03T10:07:06;13.35;;;3.97;;
16957;SDS011;8595;52.542;11.974;2022-10-03T10:10:04;10.30;;;3.70;;
16957;SDS011;8595;52.542;11.974;2022-10-03T10:13:14;18.27;;;4.15;;
16957;SDS011;8595;52.542;11.974;2022-10-03T10:18:57;11.65;;;3.60;;
16957;SDS011;8595;52.542;11.974;2022-10-03T10:25:01;13.27;;;3.85;;
16957;SDS011;8595;52.542;11.974;2022-10-03T10:28:05;14.07;;;3.60;;
16957;SDS011;8595;52.542;11.974;2022-10-03T10:34:14;15.55;;;4.18;;
16957;SDS011;8595;52.542;11.974;2022-10-03T10:40:20;17.40;;;7.43;;
16957;SDS011;8595;52.542;11.974;2022-10-03T10:43:24;14.63;;;5.35;;
16957;SDS011;8595;52.542;11.974;2022-10-03T10:52:39;19.58;;;5.72;;
16957;SDS011;8595;52.542;11.974;2022-10-03T10:58:48;12.45;;;4.07;;
16957;SDS011;8595;52.542;11.974;2022-10-03T11:01:49;16.58;;;5.30;;
16957;SDS011;8595;52.542;11.974;2022-10-03T11:08:14;20.95;;;4.88;;
16957;SDS011;8595;52.542;11.974;2022-10-03T11:11:09;12.88;;;3.42;;
16957;SDS011;8595;52.542;11.974;2022-10-03T11:14:11;12.90;;;4.97;;
16957;SDS011;8595;52.542;11.974;2022-10-03T11:17:20;9.63;;;3.03;;
16957;SDS011;8595;52.542;11.974;2022-10-03T11:20:24;13.45;;;6.57;;
16957;SDS011;8595;52.542;11.974;2022-10-03T11:32:42;11.13;;;2.83;;
16957;SDS011;8595;52.542;11.974;2022-10-03T11:35:54;7.50;;;2.63;;
16957;SDS011;8595;52.542;11.974;2022-10-03T11:38:47;6.72;;;2.75;;
16957;SDS011;8595;52.542;11.974;2022-10-03T11:41:21;10.43;;;2.65;;
16957;SDS011;8595;52.542;11.974;2022-10-03T11:44:03;10.85;;;2.95;;
16957;SDS011;8595;52.542;11.974;2022-10-03T11:46:42;12.40;;;3.25;;
16957;SDS011;8595;52.542;11.974;2022-10-03T11:49:25;8.95;;;2.67;;
16957;SDS011;8595;52.542;11.974;2022-10-03T11:52:12;11.70;;;3.53;;
16957;SDS011;8595;52.542;11.974;2022-10-03T11:54:56;17.60;;;2.92;;
16957;SDS011;8595;52.542;11.974;2022-10-03T11:57:31;10.15;;;2.78;;
16957;SDS011;8595;52.542;11.974;2022-10-03T12:00:02;9.35;;;3.03;;
16957;SDS011;8595;52.542;11.974;2022-10-03T12:02:38;6.45;;;2.42;;
16957;SDS011;8595;52.542;11.974;2022-10-03T12:05:35;7.93;;;2.58;;
16957;SDS011;8595;52.542;11.974;2022-10-03T12:08:16;10.65;;;3.13;;
16957;SDS011;8595;52.542;11.974;2022-10-03T12:11:06;6.97;;;2.30;;
16957;SDS011;8595;52.542;11.974;2022-10-03T12:13:41;11.10;;;2.67;;
16957;SDS011;8595;52.542;11.974;2022-10-03T12:16:27;9.63;;;2.78;;
16957;SDS011;8595;52.542;11.974;2022-10-03T12:18:59;7.45;;;2.38;;
16957;SDS011;8595;52.542;11.974;2022-10-03T12:21:36;7.72;;;2.47;;
16957;SDS011;8595;52.542;11.974;2022-10-03T12:24:23;7.28;;;2.35;;
16957;SDS011;8595;52.542;11.974;2022-10-03T12:26:52;12.88;;;2.67;;
16957;SDS011;8595;52.542;11.974;2022-10-03T12:29:26;5.78;;;2.17;;
16957;SDS011;8595;52.542;11.974;2022-10-03T12:32:00;8.30;;;3.08;;
16957;SDS011;8595;52.542;11.974;2022-10-03T12:34:38;10.50;;;2.90;;
16957;SDS011;8595;52.542;11.974;2022-10-03T12:37:30;8.70;;;3.03;;
16957;SDS011;8595;52.542;11.974;2022-10-03T12:40:05;11.18;;;2.58;;
16957;SDS011;8595;52.542;11.974;2022-10-03T12:42:43;9.52;;;2.38;;
16957;SDS011;8595;52.542;11.974;2022-10-03T12:45:18;6.47;;;2.47;;
16957;SDS011;8595;52.542;11.974;2022-10-03T12:47:56;5.80;;;2.35;;
16957;SDS011;8595;52.542;11.974;2022-10-03T12:50:36;8.90;;;2.92;;
16957;SDS011;8595;52.542;11.974;2022-10-03T12:53:26;6.93;;;2.45;;
16957;SDS011;8595;52.542;11.974;2022-10-03T12:56:10;7.63;;;2.97;;
16957;SDS011;8595;52.542;11.974;2022-10-03T12:58:44;8.15;;;2.90;;
16957;SDS011;8595;52.542;11.974;2022-10-03T13:01:22;6.75;;;2.30;;
16957;SDS011;8595;52.542;11.974;2022-10-03T13:03:59;9.25;;;2.78;;
16957;SDS011;8595;52.542;11.974;2022-10-03T13:06:35;5.28;;;2.17;;
16957;SDS011;8595;52.542;11.974;2022-10-03T13:09:20;7.95;;;2.80;;
16957;SDS011;8595;52.542;11.974;2022-10-03T13:11:56;4.82;;;2.28;;
16957;SDS011;8595;52.542;11.974;2022-10-03T13:14:33;8.32;;;2.70;;
16957;SDS011;8595;52.542;11.974;2022-10-03T13:17:09;8.20;;;2.53;;
16957;SDS011;8595;52.542;11.974;2022-10-03T13:19:46;11.18;;;2.50;;
16957;SDS011;8595;52.542;11.974;2022-10-03T13:22:29;7.45;;;2.50;;
16957;SDS011;8595;52.542;11.974;2022-10-03T13:25:06;10.02;;;2.80;;
16957;SDS011;8595;52.542;11.974;2022-10-03T13:27:42;16.67;;;3.22;;
16957;SDS011;8595;52.542;11.974;2022-10-03T13:30:14;8.18;;;3.05;;
16957;SDS011;8595;52.542;11.974;2022-10-03T13:32:46;9.73;;;3.03;;
16957;SDS011;8595;52.542;11.974;2022-10-03T13:35:22;8.48;;;2.70;;
16957;SDS011;8595;52.542;11.974;2022-10-03T13:41:14;7.65;;;2.50;;
16957;SDS011;8595;52.542;11.974;2022-10-03T13:43:53;7.32;;;2.65;;
16957;SDS011;8595;52.542;11.974;2022-10-03T13:46:25;4.18;;;2.17;;
16957;SDS011;8595;52.542;11.974;2022-10-03T13:48:59;6.30;;;2.58;;
16957;SDS011;8595;52.542;11.974;2022-10-03T13:51:37;8.07;;;2.30;;
16957;SDS011;8595;52.542;11.974;2022-10-03T13:54:12;7.82;;;2.80;;
16957;SDS011;8595;52.542;11.974;2022-10-03T13:56:45;9.57;;;2.30;;
16957;SDS011;8595;52.542;11.974;2022-10-03T13:59:26;7.60;;;2.75;;
16957;SDS011;8595;52.542;11.974;2022-10-03T14:02:12;12.57;;;3.65;;
16957;SDS011;8595;52.542;11.974;2022-10-03T14:04:51;12.07;;;3.13;;
16957;SDS011;8595;52.542;11.974;2022-10-03T14:07:31;6.55;;;2.10;;
16957;SDS011;8595;52.542;11.974;2022-10-03T14:10:16;8.55;;;3.30;;
16957;SDS011;8595;52.542;11.974;2022-10-03T14:13:04;9.80;;;4.15;;
16957;SDS011;8595;52.542;11.974;2022-10-03T14:15:43;8.05;;;3.17;;
16957;SDS011;8595;52.542;11.974;2022-10-03T14:18:21;8.20;;;3.30;;
16957;SDS011;8595;52.542;11.974;2022-10-03T14:24:05;11.70;;;3.63;;
16957;SDS011;8595;52.542;11.974;2022-10-03T14:26:42;8.05;;;2.90;;
16957;SDS011;8595;52.542;11.974;2022-10-03T14:29:17;7.53;;;3.17;;
16957;SDS011;8595;52.542;11.974;2022-10-03T14:31:50;8.13;;;3.20;;
16957;SDS011;8595;52.542;11.974;2022-10-03T14:34:25;7.65;;;2.50;;
16957;SDS011;8595;52.542;11.974;2022-10-03T14:37:12;11.90;;;2.72;;
16957;SDS011;8595;52.542;11.974;2022-10-03T14:39:50;3.50;;;1.95;;
16957;SDS011;8595;52.542;11.974;2022-10-03T14:42:31;8.32;;;2.55;;
16957;SDS011;8595;52.542;11.974;2022-10-03T14:45:07;5.22;;;2.03;;
16957;SDS011;8595;52.542;11.974;2022-10-03T14:47:40;6.75;;;2.28;;
16957;SDS011;8595;52.542;11.974;2022-10-03T14:50:13;7.05;;;2.55;;
16957;SDS011;8595;52.542;11.974;2022-10-03T14:52:43;4.75;;;2.10;;
16957;SDS011;8595;52.542;11.974;2022-10-03T14:55:15;7.70;;;2.17;;
16957;SDS011;8595;52.542;11.974;2022-10-03T14:57:46;8.25;;;2.42;;
16957;SDS011;8595;52.542;11.974;2022-10-03T15:00:24;6.13;;;2.60;;
16957;SDS011;8595;52.542;11.974;2022-10-03T15:02:59;9.60;;;2.85;;
16957;SDS011;8595;52.542;11.974;2022-10-03T15:05:52;6.82;;;2.60;;
16957;SDS011;8595;52.542;11.974;2022-10-03T15:08:25;8.35;;;4.35;;
16957;SDS011;8595;52.542;11.974;2022-10-03T15:10:59;14.02;;;3.15;;
16957;SDS011;8595;52.542;11.974;2022-10-03T15:13:26;4.05;;;3.30;;
16957;SDS011;8595;52.542;11.974;2022-10-03T15:16:00;5.30;;;2.80;;
16957;SDS011;8595;52.542;11.974;2022-10-03T15:18:27;5.60;;;2.45;;
16957;SDS011;8595;52.542;11.974;2022-10-03T15:20:55;6.82;;;2.42;;
16957;SDS011;8595;52.542;11.974;2022-10-03T15:23:25;9.90;;;2.40;;
16957;SDS011;8595;52.542;11.974;2022-10-03T15:25:57;8.77;;;2.67;;
16957;SDS011;8595;52.542;11.974;2022-10-03T15:28:25;7.35;;;2.42;;
16957;SDS011;8595;52.542;11.974;2022-10-03T15:30:55;7.68;;;2.20;;
16957;SDS011;8595;52.542;11.974;2022-10-03T15:33:33;8.27;;;2.58;;
16957;SDS011;8595;52.542;11.974;2022-10-03T15:36:08;6.70;;;2.50;;
16957;SDS011;8595;52.542;11.974;2022-10-03T15:38:38;9.07;;;3.08;;
16957;SDS011;8595;52.542;11.974;2022-10-03T15:41:08;8.60;;;2.67;;
16957;SDS011;8595;52.542;11.974;2022-10-03T15:43:40;6.85;;;2.67;;
16957;SDS011;8595;52.542;11.974;2022-10-03T15:46:11;9.70;;;3.15;;
16957;SDS011;8595;52.542;11.974;2022-10-03T15:48:45;7.53;;;3.75;;
16957;SDS011;8595;52.542;11.974;2022-10-03T15:51:18;11.65;;;2.70;;
16957;SDS011;8595;52.542;11.974;2022-10-03T15:53:50;7.10;;;2.90;;
16957;SDS011;8595;52.542;11.974;2022-10-03T15:56:22;6.18;;;2.00;;
16957;SDS011;8595;52.542;11.974;2022-10-03T15:58:56;8.70;;;2.53;;
16957;SDS011;8595;52.542;11.974;2022-10-03T16:01:26;6.10;;;2.60;;
16957;SDS011;8595;52.542;11.974;2022-10-03T16:03:58;7.22;;;2.88;;
16957;SDS011;8595;52.542;11.974;2022-10-03T16:06:28;9.70;;;3.38;;
16957;SDS011;8595;52.542;11.974;2022-10-03T16:09:04;12.05;;;3.13;;
16957;SDS011;8595;52.542;11.974;2022-10-03T16:11:38;7.78;;;3.05;;
16957;SDS011;8595;52.542;11.974;2022-10-03T16:14:14;7.55;;;2.85;;
16957;SDS011;8595;52.542;11.974;2022-10-03T16:16:45;10.73;;;3.38;;
16957;SDS011;8595;52.542;11.974;2022-10-03T16:19:25;13.45;;;5.80;;
16957;SDS011;8595;52.542;11.974;2022-10-03T16:24:42;11.23;;;5.22;;
16957;SDS011;8595;52.542;11.974;2022-10-03T16:27:15;9.65;;;4.18;;
16957;SDS011;8595;52.542;11.974;2022-10-03T16:29:47;9.50;;;3.67;;
16957;SDS011;8595;52.542;11.974;2022-10-03T16:32:19;13.50;;;4.63;;
16957;SDS011;8595;52.542;11.974;2022-10-03T16:34:50;11.40;;;3.38;;
16957;SDS011;8595;52.542;11.974;2022-10-03T16:37:19;6.65;;;2.70;;
16957;SDS011;8595;52.542;11.974;2022-10-03T16:39:52;7.43;;;2.85;;
16957;SDS011;8595;52.542;11.974;2022-10-03T16:42:25;7.28;;;2.97;;
16957;SDS011;8595;52.542;11.974;2022-10-03T16:45:02;9.02;;;2.90;;
16957;SDS011;8595;52.542;11.974;2022-10-03T16:47:32;8.65;;;3.13;;
16957;SDS011;8595;52.542;11.974;2022-10-03T16:50:02;9.43;;;3.75;;
16957;SDS011;8595;52.542;11.974;2022-10-03T16:52:51;11.45;;;4.25;;
16957;SDS011;8595;52.542;11.974;2022-10-03T16:55:21;9.63;;;2.90;;
16957;SDS011;8595;52.542;11.974;2022-10-03T16:57:54;7.13;;;3.03;;
16957;SDS011;8595;52.542;11.974;2022-10-03T17:00:24;5.25;;;2.65;;
16957;SDS011;8595;52.542;11.974;2022-10-03T17:02:58;7.72;;;4.38;;
16957;SDS011;8595;52.542;11.974;2022-10-03T17:05:29;10.63;;;3.20;;
16957;SDS011;8595;52.542;11.974;2022-10-03T17:08:02;9.30;;;3.80;;
16957;SDS011;8595;52.542;11.974;2022-10-03T17:10:32;8.93;;;4.10;;
16957;SDS011;8595;52.542;11.974;2022-10-03T17:13:02;8.90;;;3.17;;
16957;SDS011;8595;52.542;11.974;2022-10-03T17:15:37;11.13;;;3.00;;
16957;SDS011;8595;52.542;11.974;2022-10-03T17:18:14;12.27;;;3.13;;
16957;SDS011;8595;52.542;11.974;2022-10-03T17:20:48;7.85;;;3.60;;
16957;SDS011;8595;52.542;11.974;2022-10-03T17:23:29;10.65;;;5.80;;
16957;SDS011;8595;52.542;11.974;2022-10-03T17:26:04;16.83;;;6.05;;
16957;SDS011;8595;52.542;11.974;2022-10-03T17:28:38;11.75;;;3.92;;
16957;SDS011;8595;52.542;11.974;2022-10-03T17:31:19;16.20;;;7.55;;
16957;SDS011;8595;52.542;11.974;2022-10-03T17:33:52;12.23;;;7.80;;
16957;SDS011;8595;52.542;11.974;2022-10-03T17:36:45;10.10;;;4.30;;
16957;SDS011;8595;52.542;11.974;2022-10-03T17:39:45;11.45;;;5.43;;
16957;SDS011;8595;52.542;11.974;2022-10-03T17:42:26;9.82;;;3.63;;
16957;SDS011;8595;52.542;11.974;2022-10-03T17:45:07;13.07;;;4.28;;
16957;SDS011;8595;52.542;11.974;2022-10-03T17:47:46;13.88;;;5.95;;
16957;SDS011;8595;52.542;11.974;2022-10-03T17:50:22;12.10;;;5.70;;
16957;SDS011;8595;52.542;11.974;2022-10-03T17:52:55;24.45;;;5.40;;
16957;SDS011;8595;52.542;11.974;2022-10-03T17:55:25;8.35;;;4.35;;
16957;SDS011;8595;52.542;11.974;2022-10-03T17:57:57;12.40;;;4.20;;
16957;SDS011;8595;52.542;11.974;2022-10-03T18:00:29;13.23;;;3.92;;
16957;SDS011;8595;52.542;11.974;2022-10-03T18:03:02;15.82;;;4.15;;
16957;SDS011;8595;52.542;11.974;2022-10-03T18:05:34;14.25;;;3.78;;
16957;SDS011;8595;52.542;11.974;2022-10-03T18:08:07;14.80;;;4.55;;
16957;SDS011;8595;52.542;11.974;2022-10-03T18:10:40;10.05;;;3.80;;
16957;SDS011;8595;52.542;11.974;2022-10-03T18:13:14;14.82;;;4.97;;
16957;SDS011;8595;52.542;11.974;2022-10-03T18:15:51;8.32;;;3.35;;
16957;SDS011;8595;52.542;11.974;2022-10-03T18:21:53;16.27;;;3.55;;
16957;SDS011;8595;52.542;11.974;2022-10-03T18:24:34;10.75;;;3.10;;
16957;SDS011;8595;52.542;11.974;2022-10-03T18:27:24;10.38;;;3.85;;
16957;SDS011;8595;52.542;11.974;2022-10-03T18:30:18;11.38;;;4.15;;
16957;SDS011;8595;52.542;11.974;2022-10-03T18:32:49;14.40;;;3.60;;
16957;SDS011;8595;52.542;11.974;2022-10-03T18:35:19;11.18;;;2.92;;
16957;SDS011;8595;52.542;11.974;2022-10-03T18:37:51;11.00;;;3.22;;
16957;SDS011;8595;52.542;11.974;2022-10-03T18:40:25;6.32;;;2.50;;
16957;SDS011;8595;52.542;11.974;2022-10-03T18:42:54;10.45;;;3.10;;
16957;SDS011;8595;52.542;11.974;2022-10-03T18:45:22;9.82;;;2.90;;